createdAt,value
2018-08-03T00:02:02.470Z,72.20
2018-08-03T00:04:30.658Z,72.70
2018-08-03T00:06:58.892Z,73.10
2018-08-03T00:09:27.156Z,73.20
2018-08-03T00:11:55.337Z,74.00
2018-08-03T00:14:23.522Z,74.20
2018-08-03T00:16:51.726Z,74.70
2018-08-03T00:19:19.928Z,75.50
2018-08-03T00:21:48.150Z,77.00
2018-08-03T00:24:16.361Z,77.90
2018-08-03T00:26:44.570Z,78.70
2018-08-03T00:29:12.869Z,79.30
2018-08-03T00:34:09.040Z,80.20
2018-08-03T00:36:37.247Z,80.40
2018-08-03T00:39:07.826Z,80.70
2018-08-03T00:41:36.004Z,80.90
2018-08-03T00:44:04.254Z,81.30
2018-08-03T00:46:32.448Z,81.60
2018-08-03T00:49:00.748Z,81.90
2018-08-03T00:51:28.929Z,82.20
2018-08-03T00:56:25.228Z,82.70
2018-08-03T00:58:53.478Z,83.00
2018-08-03T01:01:21.730Z,83.30
2018-08-03T01:06:18.342Z,83.90
2018-08-03T01:08:46.550Z,84.10
2018-08-03T01:11:14.732Z,84.40
2018-08-03T01:13:42.972Z,84.50
2018-08-03T01:16:11.156Z,84.80
2018-08-03T01:18:39.404Z,85.00
2018-08-03T01:21:08.006Z,85.10
2018-08-03T01:23:36.192Z,85.20
2018-08-03T01:26:04.370Z,85.40
2018-08-03T01:28:32.606Z,85.40
2018-08-03T01:31:00.856Z,85.60
2018-08-03T01:33:29.042Z,85.60
2018-08-03T01:35:57.248Z,85.70
2018-08-03T01:38:25.466Z,85.80
2018-08-03T01:40:53.650Z,85.80
2018-08-03T01:43:21.855Z,85.90
2018-08-03T01:45:50.043Z,86.00
2018-08-03T01:48:18.305Z,86.20
2018-08-03T01:50:46.528Z,86.20
2018-08-03T01:53:14.714Z,86.40
2018-08-03T01:55:42.927Z,86.40
2018-08-03T01:58:11.195Z,86.60
2018-08-03T02:00:39.452Z,86.90
2018-08-03T02:03:07.720Z,87.00
2018-08-03T02:05:35.839Z,87.20
2018-08-03T02:08:04.109Z,87.20
2018-08-03T02:10:32.312Z,87.20
2018-08-03T02:13:00.513Z,87.30
2018-08-03T02:15:28.719Z,87.40
2018-08-03T02:17:57.185Z,87.50
2018-08-03T02:20:25.437Z,87.70
2018-08-03T02:22:54.075Z,87.80
2018-08-03T02:25:22.383Z,87.90
2018-08-03T02:27:50.625Z,88.00
2018-08-03T02:30:18.811Z,87.90
2018-08-03T02:32:46.995Z,87.90
2018-08-03T02:35:15.404Z,88.00
2018-08-03T02:37:43.594Z,87.90
2018-08-03T02:40:11.814Z,87.90
2018-08-03T02:42:40.012Z,87.90
2018-08-03T02:45:08.187Z,87.90
2018-08-03T02:47:36.391Z,88.70
2018-08-03T02:50:04.676Z,88.00
2018-08-03T02:52:32.863Z,88.10
2018-08-03T02:55:01.088Z,88.00
2018-08-03T02:57:29.278Z,87.90
2018-08-03T02:59:57.534Z,87.80
2018-08-03T03:02:25.746Z,87.70
2018-08-03T03:04:53.954Z,87.80
2018-08-03T03:07:22.209Z,87.90
2018-08-03T03:09:50.347Z,87.90
2018-08-03T03:12:18.544Z,88.00
2018-08-03T03:14:46.722Z,88.10
2018-08-03T03:17:14.922Z,88.10
2018-08-03T03:19:43.113Z,88.20
2018-08-03T03:22:11.317Z,88.20
2018-08-03T03:24:39.541Z,88.20
2018-08-03T03:27:07.715Z,88.40
2018-08-03T03:29:35.907Z,88.40
2018-08-03T03:32:04.091Z,88.70
2018-08-03T03:34:32.315Z,88.90
2018-08-03T03:37:00.663Z,89.20
2018-08-03T03:39:28.833Z,89.50
2018-08-03T03:41:57.019Z,89.90
2018-08-03T03:44:25.193Z,90.00
2018-08-03T03:46:53.363Z,90.10
2018-08-03T03:49:21.605Z,90.20
2018-08-03T03:51:49.881Z,90.40
2018-08-03T03:54:18.179Z,90.50
2018-08-03T03:56:46.713Z,90.60
2018-08-03T03:59:15.007Z,90.60
2018-08-03T04:01:43.165Z,90.60
2018-08-03T04:04:11.379Z,90.70
2018-08-03T04:06:39.599Z,90.80
2018-08-03T04:09:09.413Z,90.80
2018-08-03T04:11:37.615Z,90.80
2018-08-03T04:14:05.835Z,90.80
2018-08-03T04:16:34.315Z,90.90
2018-08-03T04:19:02.519Z,90.90
2018-08-03T04:23:58.975Z,91.10
2018-08-03T04:26:27.191Z,91.20
2018-08-03T04:28:55.535Z,91.20
2018-08-03T04:31:23.749Z,91.30
2018-08-03T04:33:51.931Z,91.40
2018-08-03T04:36:20.128Z,91.40
2018-08-03T04:38:48.353Z,91.40
2018-08-03T04:41:16.511Z,91.50
2018-08-03T04:43:44.737Z,91.50
2018-08-03T04:46:13.089Z,91.50
2018-08-03T04:48:41.414Z,91.60
2018-08-03T04:51:09.539Z,91.60
2018-08-03T04:53:37.766Z,91.70
2018-08-03T04:56:05.927Z,91.70
2018-08-03T04:58:34.213Z,91.90
2018-08-03T05:01:02.391Z,91.90
2018-08-03T05:03:30.579Z,91.90
2018-08-03T05:05:58.793Z,92.00
2018-08-03T05:08:26.989Z,92.00
2018-08-03T05:10:55.184Z,92.00
2018-08-03T05:13:23.375Z,91.90
2018-08-03T05:15:51.579Z,91.90
2018-08-03T05:18:19.835Z,91.80
2018-08-03T05:20:48.037Z,91.70
2018-08-03T05:23:16.245Z,91.60
2018-08-03T05:25:44.435Z,91.60
2018-08-03T05:28:12.712Z,91.50
2018-08-03T05:30:40.903Z,91.40
2018-08-03T05:33:09.100Z,91.30
2018-08-03T05:35:37.311Z,91.20
2018-08-03T05:38:05.597Z,91.20
2018-08-03T05:40:33.783Z,91.10
2018-08-03T05:43:01.954Z,91.00
2018-08-03T05:45:30.165Z,90.90
2018-08-03T05:47:58.565Z,90.80
2018-08-03T05:50:26.808Z,90.60
2018-08-03T05:52:55.012Z,90.40
2018-08-03T05:55:23.249Z,90.40
2018-08-03T05:57:51.583Z,90.60
2018-08-03T06:00:19.737Z,90.30
2018-08-03T06:02:47.930Z,90.20
2018-08-03T06:05:16.126Z,90.10
2018-08-03T06:07:44.327Z,90.00
2018-08-03T06:10:12.529Z,89.80
2018-08-03T06:12:40.719Z,89.50
2018-08-03T06:15:09.989Z,88.70
2018-08-03T06:17:38.595Z,88.70
2018-08-03T06:20:08.153Z,88.50
2018-08-03T06:22:36.372Z,88.40
2018-08-03T06:25:05.792Z,88.20
2018-08-03T06:27:34.005Z,88.10
2018-08-03T06:30:02.272Z,87.50
2018-08-03T06:32:30.465Z,87.20
2018-08-03T06:34:58.664Z,87.10
2018-08-03T06:37:26.859Z,86.70
2018-08-03T06:39:55.481Z,86.50
2018-08-03T06:42:23.664Z,86.40
2018-08-03T06:44:51.865Z,86.30
2018-08-03T06:47:20.088Z,85.70
2018-08-03T06:49:48.264Z,85.50
2018-08-03T06:54:44.568Z,84.30
2018-08-03T06:57:12.811Z,83.90
2018-08-03T06:59:40.996Z,83.70
2018-08-03T07:02:09.217Z,83.70
2018-08-03T07:04:37.422Z,83.60
2018-08-03T07:07:05.908Z,83.70
2018-08-03T07:09:34.134Z,82.40
2018-08-03T07:12:02.344Z,82.40
2018-08-03T07:14:30.570Z,82.60
2018-08-03T07:16:58.724Z,82.00
2018-08-03T07:19:26.934Z,80.90
2018-08-03T07:21:55.117Z,80.60
2018-08-03T07:24:23.275Z,80.60
2018-08-03T07:26:51.492Z,80.10
2018-08-03T07:29:19.676Z,79.90
2018-08-03T07:31:47.870Z,79.90
2018-08-03T07:34:16.043Z,79.60
2018-08-03T07:36:44.234Z,79.10
2018-08-03T07:39:12.446Z,78.70
2018-08-03T07:41:40.686Z,78.70
2018-08-03T07:44:08.906Z,78.20
2018-08-03T07:46:37.142Z,77.70
2018-08-03T07:49:05.406Z,77.70
2018-08-03T07:54:01.572Z,76.50
2018-08-03T07:56:29.786Z,75.80
2018-08-03T07:58:58.020Z,75.50
2018-08-03T08:01:26.208Z,75.00
2018-08-03T08:03:54.402Z,75.00
2018-08-03T08:06:22.675Z,74.40
2018-08-03T08:08:51.125Z,74.50
2018-08-03T08:13:47.574Z,73.00
2018-08-03T08:16:15.786Z,72.00
2018-08-03T08:18:43.988Z,71.90
2018-08-03T08:21:12.230Z,71.20
2018-08-03T08:26:08.468Z,69.60
2018-08-03T08:28:36.682Z,69.20
2018-08-03T08:31:04.872Z,68.50
2018-08-03T08:33:33.063Z,68.10
2018-08-03T08:36:01.269Z,67.50
2018-08-03T08:38:29.551Z,67.00
2018-08-03T08:40:57.745Z,66.30
2018-08-03T08:43:25.964Z,65.60
2018-08-03T08:48:22.192Z,64.80
2018-08-03T08:50:50.390Z,63.90
2018-08-03T08:53:18.655Z,63.50
2018-08-03T08:55:46.796Z,62.50
2018-08-03T08:58:15.063Z,61.50
2018-08-03T09:00:43.261Z,61.50
2018-08-03T09:03:11.450Z,61.50
2018-08-03T09:05:39.675Z,60.00
2018-08-03T09:08:07.945Z,59.70
2018-08-03T09:10:36.130Z,58.80
2018-08-03T09:13:04.382Z,58.10
2018-08-03T09:15:32.514Z,57.60
2018-08-03T09:18:00.771Z,56.90
2018-08-03T09:20:29.153Z,56.40
2018-08-03T09:22:57.376Z,55.50
2018-08-03T09:25:25.575Z,55.30
2018-08-03T09:27:53.850Z,54.80
2018-08-03T09:30:22.028Z,54.40
2018-08-03T09:32:50.282Z,53.50
2018-08-03T09:37:46.631Z,51.50
2018-08-03T09:40:14.859Z,49.30
2018-08-03T09:42:43.259Z,47.90
2018-08-03T09:45:11.472Z,46.90
2018-08-03T09:47:39.636Z,45.70
2018-08-03T09:50:07.827Z,43.60
2018-08-03T09:52:36.062Z,42.40
2018-08-03T09:55:04.266Z,41.60
2018-08-03T09:57:32.523Z,39.10
2018-08-03T10:00:00.756Z,38.90
2018-08-03T10:02:28.937Z,38.70
2018-08-03T10:04:57.333Z,38.50
2018-08-03T10:07:25.583Z,37.80
2018-08-03T10:09:53.776Z,37.60
2018-08-03T10:12:21.987Z,37.70
2018-08-03T10:14:50.180Z,36.70
2018-08-03T10:17:18.376Z,36.00
2018-08-03T10:19:46.581Z,35.10
2018-08-03T10:22:14.768Z,34.30
2018-08-03T10:24:42.947Z,33.60
2018-08-03T10:27:11.159Z,34.20
2018-08-03T10:29:39.375Z,33.40
2018-08-03T10:32:07.725Z,34.00
2018-08-03T10:34:35.965Z,33.60
2018-08-03T10:37:04.136Z,33.50
2018-08-03T10:39:32.359Z,33.00
2018-08-03T10:42:00.565Z,32.30
2018-08-03T10:44:28.761Z,32.30
2018-08-03T10:46:56.993Z,32.00
2018-08-03T10:49:25.165Z,31.40
2018-08-03T10:51:53.343Z,31.70
2018-08-03T10:54:21.551Z,30.60
2018-08-03T10:56:49.749Z,30.90
2018-08-03T11:01:46.032Z,29.70
2018-08-03T11:04:14.115Z,29.00
2018-08-03T11:06:42.362Z,29.20
2018-08-03T11:09:10.839Z,28.00
2018-08-03T11:11:39.133Z,28.20
2018-08-03T11:14:07.401Z,27.80
2018-08-03T11:16:35.879Z,27.10
2018-08-03T11:19:04.155Z,27.50
2018-08-03T11:21:32.389Z,28.00
2018-08-03T11:24:00.592Z,28.40
2018-08-03T11:26:28.749Z,28.10
2018-08-03T11:28:56.938Z,28.00
2018-08-03T11:31:25.179Z,28.40
2018-08-03T11:33:53.403Z,28.30
2018-08-03T11:36:21.588Z,27.90
2018-08-03T11:38:49.885Z,27.70
2018-08-03T11:41:18.061Z,27.20
2018-08-03T11:43:46.263Z,27.40
2018-08-03T11:46:14.468Z,27.10
2018-08-03T11:48:42.668Z,26.90
2018-08-03T11:51:10.835Z,26.40
2018-08-03T11:53:39.071Z,26.10
2018-08-03T11:56:07.508Z,26.20
2018-08-03T12:05:19.477Z,26.10
2018-08-03T12:07:47.664Z,26.10
2018-08-03T12:10:15.883Z,26.20
2018-08-03T12:12:44.094Z,26.30
2018-08-03T12:15:12.291Z,26.00
2018-08-03T12:17:40.499Z,25.90
2018-08-03T12:20:08.691Z,25.40
2018-08-03T12:22:36.907Z,25.60
2018-08-03T12:25:05.132Z,25.60
2018-08-03T12:27:33.338Z,25.10
2018-08-03T12:30:01.565Z,24.80
2018-08-03T12:32:29.769Z,24.40
2018-08-03T12:34:57.950Z,24.80
2018-08-03T12:37:26.164Z,24.50
2018-08-03T12:39:54.378Z,24.60
2018-08-03T12:42:22.595Z,24.60
2018-08-03T12:44:50.804Z,24.60
2018-08-03T12:47:19.580Z,24.20
2018-08-03T12:49:48.418Z,24.00
2018-08-03T12:52:17.176Z,23.70
2018-08-03T12:54:46.125Z,23.50
2018-08-03T12:57:14.542Z,23.20
2018-08-03T12:59:43.017Z,23.50
2018-08-03T13:02:11.528Z,23.30
2018-08-03T13:04:40.492Z,23.70
2018-08-03T13:07:09.217Z,23.50
2018-08-03T13:09:37.382Z,23.50
2018-08-03T13:12:05.634Z,23.40
2018-08-03T13:17:02.232Z,23.60
2018-08-03T13:19:30.430Z,23.00
2018-08-03T13:21:58.632Z,22.90
2018-08-03T13:24:26.840Z,22.60
2018-08-03T13:26:55.060Z,23.00
2018-08-03T13:29:23.320Z,23.40
2018-08-03T13:31:51.462Z,23.40
2018-08-03T13:34:19.674Z,23.60
2018-08-03T13:36:48.141Z,23.40
2018-08-03T13:39:16.524Z,23.10
2018-08-03T13:41:44.750Z,23.10
2018-08-03T13:44:12.982Z,23.10
2018-08-03T13:46:41.186Z,23.00
2018-08-03T13:49:09.420Z,22.90
2018-08-03T13:51:37.658Z,23.10
2018-08-03T13:54:05.871Z,23.10
2018-08-03T13:56:34.046Z,22.70
2018-08-03T13:59:02.256Z,22.70
2018-08-03T14:01:38.537Z,22.80
2018-08-03T14:04:06.787Z,23.10
2018-08-03T14:06:34.926Z,22.90
2018-08-03T14:09:04.474Z,22.70
2018-08-03T14:11:32.670Z,23.00
2018-08-03T14:14:00.867Z,22.90
2018-08-03T14:16:29.060Z,22.90
2018-08-03T14:18:57.242Z,22.90
2018-08-03T14:21:25.474Z,22.90
2018-08-03T14:23:53.735Z,23.00
2018-08-03T14:26:21.963Z,22.90
2018-08-03T14:28:50.170Z,22.80
2018-08-03T14:31:18.444Z,23.00
2018-08-03T14:33:46.589Z,22.70
2018-08-03T14:36:14.781Z,22.70
2018-08-03T14:38:42.992Z,22.60
2018-08-03T14:41:11.188Z,22.80
2018-08-03T14:43:39.387Z,22.70
2018-08-03T14:46:07.586Z,23.50
2018-08-03T14:48:35.778Z,23.70
2018-08-03T14:51:04.052Z,23.30
2018-08-03T14:53:32.278Z,23.80
2018-08-03T14:56:00.468Z,23.30
2018-08-03T14:58:28.664Z,23.40
2018-08-03T15:03:24.838Z,23.30
2018-08-03T15:05:53.024Z,23.00
2018-08-03T15:08:21.226Z,23.10
2018-08-03T15:10:49.420Z,23.20
2018-08-03T15:13:17.664Z,23.80
2018-08-03T15:15:45.878Z,24.50
2018-08-03T15:18:14.130Z,24.70
2018-08-03T15:20:42.320Z,25.50
2018-08-03T15:23:10.511Z,25.40
2018-08-03T15:25:38.726Z,25.10
2018-08-03T15:28:06.920Z,25.50
2018-08-03T15:30:35.164Z,26.60
2018-08-03T15:33:03.361Z,26.60
2018-08-03T15:35:31.564Z,26.10
2018-08-03T15:37:59.865Z,25.80
2018-08-03T15:40:28.112Z,25.90
2018-08-03T15:42:56.309Z,26.10
2018-08-03T15:45:24.533Z,26.40
2018-08-03T15:47:52.800Z,26.80
2018-08-03T15:50:21.101Z,27.50
2018-08-03T15:52:49.347Z,27.00
2018-08-03T15:55:17.498Z,26.90
2018-08-03T16:00:13.623Z,26.80
2018-08-03T16:05:10.400Z,27.00
2018-08-03T16:07:38.595Z,26.90
2018-08-03T16:10:06.982Z,26.70
2018-08-03T16:12:35.199Z,26.40
2018-08-03T16:15:03.424Z,26.60
2018-08-03T16:17:31.643Z,27.20
2018-08-03T16:19:59.843Z,27.10
2018-08-03T16:22:28.063Z,26.70
2018-08-03T16:24:56.297Z,26.60
2018-08-03T16:27:24.463Z,26.60
2018-08-03T16:29:53.501Z,26.70
2018-08-03T16:32:21.738Z,26.90
2018-08-03T16:34:49.934Z,26.70
2018-08-03T16:37:18.131Z,26.70
2018-08-03T16:39:46.335Z,27.10
2018-08-03T16:42:14.516Z,27.00
2018-08-03T16:44:42.853Z,26.70
2018-08-03T16:47:11.051Z,26.70
2018-08-03T16:49:39.263Z,26.60
2018-08-03T16:52:07.456Z,26.70
2018-08-03T16:54:35.639Z,27.20
2018-08-03T16:57:03.857Z,27.50
2018-08-03T16:59:32.225Z,27.70
2018-08-03T17:02:00.817Z,28.00
2018-08-03T17:04:29.001Z,28.10
2018-08-03T17:06:57.221Z,28.20
2018-08-03T17:09:25.413Z,28.30
2018-08-03T17:11:53.590Z,28.20
2018-08-03T17:16:49.799Z,28.60
2018-08-03T17:19:18.013Z,28.30
2018-08-03T17:21:46.205Z,28.50
2018-08-03T17:24:14.395Z,28.70
2018-08-03T17:26:42.628Z,29.60
2018-08-03T17:29:10.812Z,30.60
2018-08-03T17:31:39.022Z,30.90
2018-08-03T17:36:35.335Z,31.10
2018-08-03T17:39:04.541Z,30.90
2018-08-03T17:41:32.737Z,30.90
2018-08-03T17:44:01.115Z,31.40
2018-08-03T17:46:29.337Z,31.10
2018-08-03T17:48:57.525Z,31.20
2018-08-03T17:51:25.739Z,31.50
2018-08-03T17:53:53.919Z,31.80
2018-08-03T17:56:22.149Z,31.70
2018-08-03T17:58:50.461Z,32.00
2018-08-03T18:01:18.649Z,32.20
2018-08-03T18:03:46.850Z,31.90
2018-08-03T18:06:15.089Z,31.90
2018-08-03T18:08:43.640Z,32.20
2018-08-03T18:11:11.891Z,32.10
2018-08-03T18:13:40.205Z,32.40
2018-08-03T18:16:09.111Z,32.50
2018-08-03T18:18:37.371Z,32.60
2018-08-03T18:21:05.595Z,33.00
2018-08-03T18:23:33.791Z,33.00
2018-08-03T18:26:02.004Z,33.20
2018-08-03T18:28:30.222Z,33.30
2018-08-03T18:30:58.401Z,33.60
2018-08-03T18:33:26.592Z,34.30
2018-08-03T18:35:54.804Z,33.70
2018-08-03T18:38:23.060Z,33.90
2018-08-03T18:40:51.235Z,33.90
2018-08-03T18:43:19.457Z,33.90
2018-08-03T18:45:47.647Z,33.80
2018-08-03T18:48:15.927Z,33.70
2018-08-03T18:50:44.127Z,33.70
2018-08-03T18:53:12.338Z,33.90
2018-08-03T18:55:40.549Z,33.90
2018-08-03T18:58:08.782Z,33.90
2018-08-03T19:00:37.137Z,34.00
2018-08-03T19:03:05.307Z,34.00
2018-08-03T19:05:33.499Z,34.10
2018-08-03T19:08:01.762Z,34.40
2018-08-03T19:10:30.000Z,34.30
2018-08-03T19:12:58.206Z,34.20
2018-08-03T19:15:26.519Z,34.40
2018-08-03T19:17:54.850Z,34.20
2018-08-03T19:20:23.033Z,34.40
2018-08-03T19:22:51.512Z,34.50
2018-08-03T19:25:19.715Z,34.60
2018-08-03T19:27:47.916Z,34.60
2018-08-03T19:30:16.444Z,34.70
2018-08-03T19:32:44.716Z,35.00
2018-08-03T19:35:12.926Z,35.00
2018-08-03T19:37:41.127Z,35.10
2018-08-03T19:40:09.320Z,35.30
2018-08-03T19:42:37.536Z,35.30
2018-08-03T19:47:34.132Z,35.40
2018-08-03T19:50:02.366Z,35.40
2018-08-03T19:52:30.753Z,35.70
2018-08-03T19:54:58.960Z,36.30
2018-08-03T19:57:27.183Z,37.30
2018-08-03T19:59:55.379Z,37.90
2018-08-03T20:02:23.600Z,38.90
2018-08-03T20:04:52.005Z,39.60
2018-08-03T20:07:20.201Z,39.70
2018-08-03T20:09:48.358Z,40.10
2018-08-03T20:12:16.568Z,40.20
2018-08-03T20:14:44.776Z,40.40
2018-08-03T20:19:40.930Z,41.40
2018-08-03T20:24:41.626Z,41.70
2018-08-03T20:27:09.914Z,41.90
2018-08-03T20:29:38.254Z,42.30
2018-08-03T20:32:06.462Z,42.40
2018-08-03T20:34:34.673Z,42.90
2018-08-03T20:37:02.948Z,43.20
2018-08-03T20:39:31.172Z,43.80
2018-08-03T20:41:59.394Z,43.90
2018-08-03T20:44:27.620Z,43.90
2018-08-03T20:46:55.798Z,44.10
2018-08-03T20:49:24.284Z,44.20
2018-08-03T20:51:52.511Z,44.00
2018-08-03T20:54:20.870Z,43.70
2018-08-03T20:56:49.048Z,43.50
2018-08-03T20:59:17.318Z,43.40
2018-08-03T21:01:45.508Z,43.40
2018-08-03T21:06:41.668Z,43.40
2018-08-03T21:11:39.412Z,43.70
2018-08-03T21:14:07.616Z,43.80
2018-08-03T21:16:36.936Z,43.80
2018-08-03T21:19:05.394Z,43.70
2018-08-03T21:21:34.434Z,43.50
2018-08-03T21:24:02.650Z,43.60
2018-08-03T21:26:30.844Z,43.70
2018-08-03T21:28:59.046Z,43.70
2018-08-03T21:31:28.141Z,43.80
2018-08-03T21:33:56.350Z,44.20
2018-08-03T21:36:24.552Z,44.60
2018-08-03T21:38:52.746Z,44.80
2018-08-03T21:41:21.054Z,44.50
2018-08-03T21:43:49.258Z,44.90
2018-08-03T21:46:17.446Z,45.20
2018-08-03T21:51:13.562Z,45.50
2018-08-03T21:53:41.766Z,45.80
2018-08-03T21:58:38.148Z,47.00
2018-08-03T22:01:08.562Z,47.80
2018-08-03T22:03:36.758Z,48.30
2018-08-03T22:06:04.988Z,48.80
2018-08-03T22:08:33.237Z,49.00
2018-08-03T22:11:01.497Z,49.20
2018-08-03T22:13:29.729Z,49.20
2018-08-03T22:15:57.928Z,49.30
2018-08-03T22:18:26.534Z,49.40
2018-08-03T22:20:54.722Z,49.40
2018-08-03T22:23:22.950Z,50.10
2018-08-03T22:25:51.134Z,50.10
2018-08-03T22:28:19.412Z,50.30
2018-08-03T22:30:47.618Z,50.50
2018-08-03T22:33:15.810Z,50.50
2018-08-03T22:35:44.122Z,50.40
2018-08-03T22:38:12.365Z,50.20
2018-08-03T22:40:40.606Z,50.10
2018-08-03T22:43:08.956Z,49.90
2018-08-03T22:45:37.169Z,49.90
2018-08-03T22:48:05.338Z,50.20
2018-08-03T22:50:33.555Z,50.30
2018-08-03T22:53:01.752Z,50.50
2018-08-03T22:57:58.053Z,51.40
2018-08-03T23:00:26.567Z,51.80
2018-08-03T23:02:54.751Z,52.30
2018-08-03T23:05:22.933Z,52.80
2018-08-03T23:07:51.237Z,53.10
2018-08-03T23:10:19.473Z,53.20
2018-08-03T23:12:47.901Z,53.20
2018-08-03T23:15:16.114Z,53.30
2018-08-03T23:17:44.300Z,53.20
2018-08-03T23:20:12.528Z,53.70
2018-08-03T23:22:40.726Z,53.60
2018-08-03T23:25:08.954Z,53.40
2018-08-03T23:27:37.154Z,53.20
2018-08-03T23:32:34.273Z,52.70
2018-08-03T23:35:02.464Z,52.80
2018-08-03T23:37:30.643Z,50.80
2018-08-03T23:39:58.910Z,50.60
2018-08-03T23:42:27.093Z,52.20
2018-08-03T23:44:55.312Z,52.80
2018-08-03T23:47:23.495Z,53.40
2018-08-03T23:49:51.769Z,53.90
2018-08-03T23:52:20.016Z,54.10
2018-08-03T23:54:48.182Z,54.40
2018-08-03T23:59:44.470Z,54.50
